PILOTS ONLINE: 624    ATC ONLINE: 88

CYSK - Sanikiluaq Airport

Location

IATA YSK
City Sanikiluaq
Country  Canada
Latitude 56° 32' 16" N
Longitude 79° 14' 48" W
Elevation 104 ft
Type Medium Airport

Runways

09/27 3800 ft / 0 ft

Weather

METAR
2014/07/26 05:00
CYSK 260500Z 35013KT 15SM BKN050 08/06 A2969 RMK SC7 CALL OUT LAST OBS/NEXT 281200UTC SLP058
TAF
No TAF available

Outbound flights

Inbound flights